sensor_id;sensor_type;location;lat;lon;timestamp;P1;durP1;ratioP1;P2;durP2;ratioP2
2756;SDS011;1386;50.862;6.494;2022-09-03T00:02:01;2.13;;;1.63;;
2756;SDS011;1386;50.862;6.494;2022-09-03T00:04:36;5.90;;;2.77;;
2756;SDS011;1386;50.862;6.494;2022-09-03T00:07:11;1.97;;;1.60;;
2756;SDS011;1386;50.862;6.494;2022-09-03T00:09:45;2.70;;;1.80;;
2756;SDS011;1386;50.862;6.494;2022-09-03T00:12:17;2.60;;;1.97;;
2756;SDS011;1386;50.862;6.494;2022-09-03T00:14:48;3.30;;;1.83;;
2756;SDS011;1386;50.862;6.494;2022-09-03T00:17:18;3.10;;;1.70;;
2756;SDS011;1386;50.862;6.494;2022-09-03T00:19:51;4.77;;;1.60;;
2756;SDS011;1386;50.862;6.494;2022-09-03T00:22:22;3.87;;;1.67;;
2756;SDS011;1386;50.862;6.494;2022-09-03T00:24:53;2.50;;;1.47;;
2756;SDS011;1386;50.862;6.494;2022-09-03T00:27:24;1.73;;;1.40;;
2756;SDS011;1386;50.862;6.494;2022-09-03T00:29:54;2.07;;;1.70;;
2756;SDS011;1386;50.862;6.494;2022-09-03T00:32:26;2.87;;;2.00;;
2756;SDS011;1386;50.862;6.494;2022-09-03T00:35:01;3.37;;;1.53;;
2756;SDS011;1386;50.862;6.494;2022-09-03T00:37:31;2.80;;;1.83;;
2756;SDS011;1386;50.862;6.494;2022-09-03T00:40:01;3.40;;;1.73;;
2756;SDS011;1386;50.862;6.494;2022-09-03T00:42:37;1.80;;;1.60;;
2756;SDS011;1386;50.862;6.494;2022-09-03T00:45:15;2.57;;;1.60;;
2756;SDS011;1386;50.862;6.494;2022-09-03T00:47:55;2.30;;;1.70;;
2756;SDS011;1386;50.862;6.494;2022-09-03T00:50:35;4.80;;;1.60;;
2756;SDS011;1386;50.862;6.494;2022-09-03T00:53:11;3.50;;;1.83;;
2756;SDS011;1386;50.862;6.494;2022-09-03T00:55:45;2.90;;;1.73;;
2756;SDS011;1386;50.862;6.494;2022-09-03T00:58:32;2.20;;;1.60;;
2756;SDS011;1386;50.862;6.494;2022-09-03T01:01:20;4.50;;;1.93;;
2756;SDS011;1386;50.862;6.494;2022-09-03T01:03:52;9.87;;;1.83;;
2756;SDS011;1386;50.862;6.494;2022-09-03T01:06:32;2.50;;;1.70;;
2756;SDS011;1386;50.862;6.494;2022-09-03T01:09:11;1.90;;;1.60;;
2756;SDS011;1386;50.862;6.494;2022-09-03T01:11:52;6.80;;;1.90;;
2756;SDS011;1386;50.862;6.494;2022-09-03T01:14:31;2.87;;;1.90;;
2756;SDS011;1386;50.862;6.494;2022-09-03T01:17:07;22.87;;;2.77;;
2756;SDS011;1386;50.862;6.494;2022-09-03T01:22:46;2.27;;;1.50;;
2756;SDS011;1386;50.862;6.494;2022-09-03T01:25:37;1.73;;;1.50;;
2756;SDS011;1386;50.862;6.494;2022-09-03T01:28:22;2.37;;;1.57;;
2756;SDS011;1386;50.862;6.494;2022-09-03T01:31:00;2.80;;;1.60;;
2756;SDS011;1386;50.862;6.494;2022-09-03T01:33:36;2.03;;;1.60;;
2756;SDS011;1386;50.862;6.494;2022-09-03T01:36:07;2.60;;;1.73;;
2756;SDS011;1386;50.862;6.494;2022-09-03T01:38:40;1.87;;;1.60;;
2756;SDS011;1386;50.862;6.494;2022-09-03T01:41:12;2.07;;;1.87;;
2756;SDS011;1386;50.862;6.494;2022-09-03T01:44:07;2.27;;;2.07;;
2756;SDS011;1386;50.862;6.494;2022-09-03T01:46:41;2.70;;;1.73;;
2756;SDS011;1386;50.862;6.494;2022-09-03T01:49:12;2.63;;;1.60;;
2756;SDS011;1386;50.862;6.494;2022-09-03T01:51:49;4.03;;;1.70;;
2756;SDS011;1386;50.862;6.494;2022-09-03T01:54:24;2.13;;;1.20;;
2756;SDS011;1386;50.862;6.494;2022-09-03T01:57:13;2.03;;;1.67;;
2756;SDS011;1386;50.862;6.494;2022-09-03T01:59:54;1.70;;;1.60;;
2756;SDS011;1386;50.862;6.494;2022-09-03T02:02:25;3.07;;;1.70;;
2756;SDS011;1386;50.862;6.494;2022-09-03T02:04:54;3.13;;;1.67;;
2756;SDS011;1386;50.862;6.494;2022-09-03T02:07:24;2.10;;;1.50;;
2756;SDS011;1386;50.862;6.494;2022-09-03T02:09:57;3.10;;;1.80;;
2756;SDS011;1386;50.862;6.494;2022-09-03T02:12:24;2.07;;;1.77;;
2756;SDS011;1386;50.862;6.494;2022-09-03T02:14:53;3.83;;;1.57;;
2756;SDS011;1386;50.862;6.494;2022-09-03T02:17:20;2.47;;;1.60;;
2756;SDS011;1386;50.862;6.494;2022-09-03T02:19:47;2.30;;;1.80;;
2756;SDS011;1386;50.862;6.494;2022-09-03T02:22:14;6.37;;;1.60;;
2756;SDS011;1386;50.862;6.494;2022-09-03T02:24:42;1.70;;;1.50;;
2756;SDS011;1386;50.862;6.494;2022-09-03T02:27:09;2.03;;;1.83;;
2756;SDS011;1386;50.862;6.494;2022-09-03T02:29:35;5.07;;;1.70;;
2756;SDS011;1386;50.862;6.494;2022-09-03T02:32:04;1.90;;;1.50;;
2756;SDS011;1386;50.862;6.494;2022-09-03T02:34:31;5.27;;;1.50;;
2756;SDS011;1386;50.862;6.494;2022-09-03T02:36:57;2.23;;;1.93;;
2756;SDS011;1386;50.862;6.494;2022-09-03T02:39:24;1.60;;;1.50;;
2756;SDS011;1386;50.862;6.494;2022-09-03T02:41:53;1.73;;;1.57;;
2756;SDS011;1386;50.862;6.494;2022-09-03T02:44:23;1.80;;;1.40;;
2756;SDS011;1386;50.862;6.494;2022-09-03T02:46:56;2.60;;;1.20;;
2756;SDS011;1386;50.862;6.494;2022-09-03T02:49:25;2.70;;;1.93;;
2756;SDS011;1386;50.862;6.494;2022-09-03T02:51:56;2.50;;;1.67;;
2756;SDS011;1386;50.862;6.494;2022-09-03T02:54:24;3.63;;;1.87;;
2756;SDS011;1386;50.862;6.494;2022-09-03T02:56:52;2.17;;;1.73;;
2756;SDS011;1386;50.862;6.494;2022-09-03T02:59:19;1.90;;;1.40;;
2756;SDS011;1386;50.862;6.494;2022-09-03T03:01:47;1.53;;;1.37;;
2756;SDS011;1386;50.862;6.494;2022-09-03T03:04:14;3.93;;;1.87;;
2756;SDS011;1386;50.862;6.494;2022-09-03T03:06:42;2.70;;;1.40;;
2756;SDS011;1386;50.862;6.494;2022-09-03T03:09:09;3.83;;;1.90;;
2756;SDS011;1386;50.862;6.494;2022-09-03T03:11:36;2.37;;;1.80;;
2756;SDS011;1386;50.862;6.494;2022-09-03T03:14:04;1.80;;;1.70;;
2756;SDS011;1386;50.862;6.494;2022-09-03T03:16:31;2.07;;;1.57;;
2756;SDS011;1386;50.862;6.494;2022-09-03T03:18:58;2.50;;;1.77;;
2756;SDS011;1386;50.862;6.494;2022-09-03T03:21:25;2.20;;;1.50;;
2756;SDS011;1386;50.862;6.494;2022-09-03T03:23:53;4.00;;;1.47;;
2756;SDS011;1386;50.862;6.494;2022-09-03T03:26:20;2.97;;;1.53;;
2756;SDS011;1386;50.862;6.494;2022-09-03T03:28:48;3.67;;;1.83;;
2756;SDS011;1386;50.862;6.494;2022-09-03T03:31:20;4.60;;;2.13;;
2756;SDS011;1386;50.862;6.494;2022-09-03T03:33:49;3.60;;;1.93;;
2756;SDS011;1386;50.862;6.494;2022-09-03T03:36:17;2.73;;;1.50;;
2756;SDS011;1386;50.862;6.494;2022-09-03T03:38:44;2.03;;;1.50;;
2756;SDS011;1386;50.862;6.494;2022-09-03T03:41:13;2.47;;;1.70;;
2756;SDS011;1386;50.862;6.494;2022-09-03T03:43:42;4.60;;;1.60;;
2756;SDS011;1386;50.862;6.494;2022-09-03T03:46:10;1.70;;;1.60;;
2756;SDS011;1386;50.862;6.494;2022-09-03T03:48:37;2.13;;;1.60;;
2756;SDS011;1386;50.862;6.494;2022-09-03T03:51:05;2.00;;;1.80;;
2756;SDS011;1386;50.862;6.494;2022-09-03T03:53:35;2.30;;;1.40;;
2756;SDS011;1386;50.862;6.494;2022-09-03T03:56:33;2.43;;;1.63;;
2756;SDS011;1386;50.862;6.494;2022-09-03T03:59:00;2.47;;;1.70;;
2756;SDS011;1386;50.862;6.494;2022-09-03T04:01:28;1.47;;;1.30;;
2756;SDS011;1386;50.862;6.494;2022-09-03T04:03:55;4.27;;;1.87;;
2756;SDS011;1386;50.862;6.494;2022-09-03T04:06:29;3.27;;;1.63;;
2756;SDS011;1386;50.862;6.494;2022-09-03T04:08:56;1.67;;;1.57;;
2756;SDS011;1386;50.862;6.494;2022-09-03T04:11:23;3.10;;;1.60;;
2756;SDS011;1386;50.862;6.494;2022-09-03T04:13:52;2.73;;;1.70;;
2756;SDS011;1386;50.862;6.494;2022-09-03T04:16:20;4.90;;;1.53;;
2756;SDS011;1386;50.862;6.494;2022-09-03T04:18:52;2.77;;;1.50;;
2756;SDS011;1386;50.862;6.494;2022-09-03T04:21:20;2.30;;;1.80;;
2756;SDS011;1386;50.862;6.494;2022-09-03T04:23:48;3.00;;;1.40;;
2756;SDS011;1386;50.862;6.494;2022-09-03T04:26:17;2.40;;;1.60;;
2756;SDS011;1386;50.862;6.494;2022-09-03T04:28:45;3.40;;;1.67;;
2756;SDS011;1386;50.862;6.494;2022-09-03T04:31:13;4.17;;;1.80;;
2756;SDS011;1386;50.862;6.494;2022-09-03T04:33:42;2.70;;;1.40;;
2756;SDS011;1386;50.862;6.494;2022-09-03T04:36:17;1.73;;;1.20;;
2756;SDS011;1386;50.862;6.494;2022-09-03T04:38:46;1.83;;;1.60;;
2756;SDS011;1386;50.862;6.494;2022-09-03T04:41:14;1.60;;;1.50;;
2756;SDS011;1386;50.862;6.494;2022-09-03T04:43:42;2.67;;;1.93;;
2756;SDS011;1386;50.862;6.494;2022-09-03T04:46:11;2.93;;;1.53;;
2756;SDS011;1386;50.862;6.494;2022-09-03T04:48:40;3.30;;;1.40;;
2756;SDS011;1386;50.862;6.494;2022-09-03T04:51:08;2.23;;;1.40;;
2756;SDS011;1386;50.862;6.494;2022-09-03T04:53:38;3.00;;;1.60;;
2756;SDS011;1386;50.862;6.494;2022-09-03T04:56:11;2.57;;;2.13;;
2756;SDS011;1386;50.862;6.494;2022-09-03T04:58:38;3.13;;;1.90;;
2756;SDS011;1386;50.862;6.494;2022-09-03T05:01:08;3.80;;;1.80;;
2756;SDS011;1386;50.862;6.494;2022-09-03T05:03:38;2.87;;;1.73;;
2756;SDS011;1386;50.862;6.494;2022-09-03T05:06:05;2.17;;;1.90;;
2756;SDS011;1386;50.862;6.494;2022-09-03T05:08:32;2.43;;;1.70;;
2756;SDS011;1386;50.862;6.494;2022-09-03T05:11:01;2.40;;;1.50;;
2756;SDS011;1386;50.862;6.494;2022-09-03T05:13:28;4.73;;;1.60;;
2756;SDS011;1386;50.862;6.494;2022-09-03T05:15:58;1.83;;;1.53;;
2756;SDS011;1386;50.862;6.494;2022-09-03T05:18:26;2.27;;;1.40;;
2756;SDS011;1386;50.862;6.494;2022-09-03T05:20:58;2.00;;;1.40;;
2756;SDS011;1386;50.862;6.494;2022-09-03T05:23:25;1.60;;;1.47;;
2756;SDS011;1386;50.862;6.494;2022-09-03T05:25:55;3.00;;;1.50;;
2756;SDS011;1386;50.862;6.494;2022-09-03T05:28:23;2.80;;;1.53;;
2756;SDS011;1386;50.862;6.494;2022-09-03T05:30:57;1.97;;;1.53;;
2756;SDS011;1386;50.862;6.494;2022-09-03T05:33:25;3.40;;;1.47;;
2756;SDS011;1386;50.862;6.494;2022-09-03T05:35:53;3.87;;;2.17;;
2756;SDS011;1386;50.862;6.494;2022-09-03T05:38:21;4.50;;;2.80;;
2756;SDS011;1386;50.862;6.494;2022-09-03T05:40:48;3.87;;;1.90;;
2756;SDS011;1386;50.862;6.494;2022-09-03T05:43:15;4.20;;;1.50;;
2756;SDS011;1386;50.862;6.494;2022-09-03T05:45:42;5.03;;;1.70;;
2756;SDS011;1386;50.862;6.494;2022-09-03T05:48:09;16.60;;;2.27;;
2756;SDS011;1386;50.862;6.494;2022-09-03T05:50:35;3.30;;;1.70;;
2756;SDS011;1386;50.862;6.494;2022-09-03T05:53:08;5.07;;;2.00;;
2756;SDS011;1386;50.862;6.494;2022-09-03T05:55:58;5.27;;;1.80;;
2756;SDS011;1386;50.862;6.494;2022-09-03T05:58:29;7.13;;;1.60;;
2756;SDS011;1386;50.862;6.494;2022-09-03T06:00:56;4.73;;;1.60;;
2756;SDS011;1386;50.862;6.494;2022-09-03T06:03:23;2.57;;;1.50;;
2756;SDS011;1386;50.862;6.494;2022-09-03T06:05:50;3.90;;;1.50;;
2756;SDS011;1386;50.862;6.494;2022-09-03T06:08:18;5.40;;;1.87;;
2756;SDS011;1386;50.862;6.494;2022-09-03T06:13:35;2.40;;;1.50;;
2756;SDS011;1386;50.862;6.494;2022-09-03T06:16:03;7.10;;;1.70;;
2756;SDS011;1386;50.862;6.494;2022-09-03T06:18:30;2.20;;;1.43;;
2756;SDS011;1386;50.862;6.494;2022-09-03T06:20:58;2.33;;;1.33;;
2756;SDS011;1386;50.862;6.494;2022-09-03T06:23:26;7.43;;;2.53;;
2756;SDS011;1386;50.862;6.494;2022-09-03T06:26:04;4.33;;;1.77;;
2756;SDS011;1386;50.862;6.494;2022-09-03T06:28:34;5.17;;;2.03;;
2756;SDS011;1386;50.862;6.494;2022-09-03T06:31:02;2.53;;;1.63;;
2756;SDS011;1386;50.862;6.494;2022-09-03T06:33:36;4.30;;;1.77;;
2756;SDS011;1386;50.862;6.494;2022-09-03T06:36:10;4.47;;;1.70;;
2756;SDS011;1386;50.862;6.494;2022-09-03T06:38:38;4.03;;;1.93;;
2756;SDS011;1386;50.862;6.494;2022-09-03T06:41:08;5.00;;;1.80;;
2756;SDS011;1386;50.862;6.494;2022-09-03T06:43:37;4.70;;;1.70;;
2756;SDS011;1386;50.862;6.494;2022-09-03T06:46:05;2.83;;;1.60;;
2756;SDS011;1386;50.862;6.494;2022-09-03T06:48:33;2.50;;;1.30;;
2756;SDS011;1386;50.862;6.494;2022-09-03T06:51:02;3.13;;;1.80;;
2756;SDS011;1386;50.862;6.494;2022-09-03T06:53:31;3.10;;;1.60;;
2756;SDS011;1386;50.862;6.494;2022-09-03T06:56:00;3.23;;;1.70;;
2756;SDS011;1386;50.862;6.494;2022-09-03T06:58:30;2.97;;;1.43;;
2756;SDS011;1386;50.862;6.494;2022-09-03T07:01:00;6.07;;;1.70;;
2756;SDS011;1386;50.862;6.494;2022-09-03T07:03:28;8.20;;;2.00;;
2756;SDS011;1386;50.862;6.494;2022-09-03T07:05:58;6.00;;;1.90;;
2756;SDS011;1386;50.862;6.494;2022-09-03T07:08:26;6.17;;;1.80;;
2756;SDS011;1386;50.862;6.494;2022-09-03T07:10:53;6.90;;;1.90;;
2756;SDS011;1386;50.862;6.494;2022-09-03T07:13:20;7.40;;;1.80;;
2756;SDS011;1386;50.862;6.494;2022-09-03T07:15:48;7.47;;;1.63;;
2756;SDS011;1386;50.862;6.494;2022-09-03T07:18:23;7.97;;;1.90;;
2756;SDS011;1386;50.862;6.494;2022-09-03T07:21:03;8.00;;;1.60;;
2756;SDS011;1386;50.862;6.494;2022-09-03T07:23:41;2.67;;;1.40;;
2756;SDS011;1386;50.862;6.494;2022-09-03T07:26:16;1.50;;;1.20;;
2756;SDS011;1386;50.862;6.494;2022-09-03T07:28:45;6.40;;;3.53;;
2756;SDS011;1386;50.862;6.494;2022-09-03T07:31:14;4.30;;;1.53;;
2756;SDS011;1386;50.862;6.494;2022-09-03T07:33:43;2.50;;;1.60;;
2756;SDS011;1386;50.862;6.494;2022-09-03T07:36:11;2.40;;;1.70;;
2756;SDS011;1386;50.862;6.494;2022-09-03T07:38:39;5.50;;;1.50;;
2756;SDS011;1386;50.862;6.494;2022-09-03T07:41:08;3.77;;;1.87;;
2756;SDS011;1386;50.862;6.494;2022-09-03T07:43:36;4.53;;;1.33;;
2756;SDS011;1386;50.862;6.494;2022-09-03T07:46:05;2.57;;;1.80;;
2756;SDS011;1386;50.862;6.494;2022-09-03T07:48:33;4.80;;;1.80;;
2756;SDS011;1386;50.862;6.494;2022-09-03T07:51:01;2.13;;;1.20;;
2756;SDS011;1386;50.862;6.494;2022-09-03T07:53:40;2.23;;;1.60;;
2756;SDS011;1386;50.862;6.494;2022-09-03T07:56:54;2.33;;;1.63;;
2756;SDS011;1386;50.862;6.494;2022-09-03T08:02:10;2.23;;;1.50;;
2756;SDS011;1386;50.862;6.494;2022-09-03T08:21:42;3.53;;;1.70;;
2756;SDS011;1386;50.862;6.494;2022-09-03T08:24:13;3.30;;;1.50;;
2756;SDS011;1386;50.862;6.494;2022-09-03T08:26:57;2.60;;;1.80;;
2756;SDS011;1386;50.862;6.494;2022-09-03T09:26:29;2.00;;;1.60;;
2756;SDS011;1386;50.862;6.494;2022-09-03T09:29:05;3.67;;;1.80;;
2756;SDS011;1386;50.862;6.494;2022-09-03T09:38:31;2.40;;;1.73;;
2756;SDS011;1386;50.862;6.494;2022-09-03T09:41:16;6.40;;;1.83;;
2756;SDS011;1386;50.862;6.494;2022-09-03T09:44:21;5.37;;;2.57;;
2756;SDS011;1386;50.862;6.494;2022-09-03T09:50:49;5.37;;;2.10;;
2756;SDS011;1386;50.862;6.494;2022-09-03T09:54:24;2.70;;;1.70;;
2756;SDS011;1386;50.862;6.494;2022-09-03T09:57:45;7.00;;;2.63;;
2756;SDS011;1386;50.862;6.494;2022-09-03T10:10:55;3.03;;;1.80;;
2756;SDS011;1386;50.862;6.494;2022-09-03T10:13:38;2.57;;;2.07;;
2756;SDS011;1386;50.862;6.494;2022-09-03T10:23:01;2.33;;;1.90;;
2756;SDS011;1386;50.862;6.494;2022-09-03T10:25:37;3.90;;;2.10;;
2756;SDS011;1386;50.862;6.494;2022-09-03T10:28:16;2.27;;;1.93;;
2756;SDS011;1386;50.862;6.494;2022-09-03T10:30:54;4.10;;;2.20;;
2756;SDS011;1386;50.862;6.494;2022-09-03T10:33:41;2.83;;;1.67;;
2756;SDS011;1386;50.862;6.494;2022-09-03T10:36:16;3.40;;;2.00;;
2756;SDS011;1386;50.862;6.494;2022-09-03T10:38:59;2.80;;;2.10;;
2756;SDS011;1386;50.862;6.494;2022-09-03T10:41:44;2.37;;;1.70;;
2756;SDS011;1386;50.862;6.494;2022-09-03T10:44:29;1.90;;;1.53;;
2756;SDS011;1386;50.862;6.494;2022-09-03T10:47:16;5.00;;;2.33;;
2756;SDS011;1386;50.862;6.494;2022-09-03T10:50:20;2.20;;;1.80;;
2756;SDS011;1386;50.862;6.494;2022-09-03T10:52:57;4.07;;;2.83;;
2756;SDS011;1386;50.862;6.494;2022-09-03T10:55:40;4.13;;;1.80;;
2756;SDS011;1386;50.862;6.494;2022-09-03T11:01:17;8.17;;;2.33;;
2756;SDS011;1386;50.862;6.494;2022-09-03T11:04:27;3.80;;;2.00;;
2756;SDS011;1386;50.862;6.494;2022-09-03T11:07:59;3.77;;;1.70;;
2756;SDS011;1386;50.862;6.494;2022-09-03T11:10:31;2.13;;;1.67;;
2756;SDS011;1386;50.862;6.494;2022-09-03T11:13:02;3.20;;;2.13;;
2756;SDS011;1386;50.862;6.494;2022-09-03T11:15:33;3.60;;;2.17;;
2756;SDS011;1386;50.862;6.494;2022-09-03T11:18:07;3.13;;;1.90;;
2756;SDS011;1386;50.862;6.494;2022-09-03T11:20:41;2.00;;;1.60;;
2756;SDS011;1386;50.862;6.494;2022-09-03T11:26:12;2.80;;;1.80;;
2756;SDS011;1386;50.862;6.494;2022-09-03T11:28:47;3.47;;;2.10;;
2756;SDS011;1386;50.862;6.494;2022-09-03T11:31:30;4.53;;;1.73;;
2756;SDS011;1386;50.862;6.494;2022-09-03T11:34:10;3.23;;;1.90;;
2756;SDS011;1386;50.862;6.494;2022-09-03T11:36:40;7.13;;;2.57;;
2756;SDS011;1386;50.862;6.494;2022-09-03T11:39:23;5.83;;;1.73;;
2756;SDS011;1386;50.862;6.494;2022-09-03T11:42:32;4.03;;;1.50;;
2756;SDS011;1386;50.862;6.494;2022-09-03T11:45:12;5.60;;;2.03;;
2756;SDS011;1386;50.862;6.494;2022-09-03T11:47:50;3.90;;;1.73;;
2756;SDS011;1386;50.862;6.494;2022-09-03T11:50:19;6.47;;;1.77;;
2756;SDS011;1386;50.862;6.494;2022-09-03T11:52:49;5.93;;;2.10;;
2756;SDS011;1386;50.862;6.494;2022-09-03T11:55:24;3.87;;;1.90;;
2756;SDS011;1386;50.862;6.494;2022-09-03T11:57:54;6.87;;;1.93;;
2756;SDS011;1386;50.862;6.494;2022-09-03T12:00:22;5.70;;;1.83;;
2756;SDS011;1386;50.862;6.494;2022-09-03T12:02:50;7.40;;;1.83;;
2756;SDS011;1386;50.862;6.494;2022-09-03T12:05:25;5.67;;;2.10;;
2756;SDS011;1386;50.862;6.494;2022-09-03T12:08:12;5.77;;;2.00;;
2756;SDS011;1386;50.862;6.494;2022-09-03T12:10:52;2.50;;;2.03;;
2756;SDS011;1386;50.862;6.494;2022-09-03T12:13:27;3.40;;;2.20;;
2756;SDS011;1386;50.862;6.494;2022-09-03T12:16:16;4.13;;;2.27;;
2756;SDS011;1386;50.862;6.494;2022-09-03T12:18:52;2.80;;;1.87;;
2756;SDS011;1386;50.862;6.494;2022-09-03T12:21:25;3.67;;;2.00;;
2756;SDS011;1386;50.862;6.494;2022-09-03T12:23:52;3.50;;;1.80;;
2756;SDS011;1386;50.862;6.494;2022-09-03T12:26:20;3.17;;;2.47;;
2756;SDS011;1386;50.862;6.494;2022-09-03T12:28:52;3.20;;;1.90;;
2756;SDS011;1386;50.862;6.494;2022-09-03T12:31:22;4.20;;;2.10;;
2756;SDS011;1386;50.862;6.494;2022-09-03T12:33:54;2.53;;;1.80;;
2756;SDS011;1386;50.862;6.494;2022-09-03T12:36:35;2.43;;;2.23;;
2756;SDS011;1386;50.862;6.494;2022-09-03T12:39:06;2.97;;;2.40;;
2756;SDS011;1386;50.862;6.494;2022-09-03T12:41:34;2.93;;;1.93;;
2756;SDS011;1386;50.862;6.494;2022-09-03T12:44:02;3.27;;;2.10;;
2756;SDS011;1386;50.862;6.494;2022-09-03T12:46:31;3.60;;;1.77;;
2756;SDS011;1386;50.862;6.494;2022-09-03T12:48:59;2.70;;;2.50;;
2756;SDS011;1386;50.862;6.494;2022-09-03T12:51:36;2.80;;;2.40;;
2756;SDS011;1386;50.862;6.494;2022-09-03T12:54:09;4.43;;;3.20;;
2756;SDS011;1386;50.862;6.494;2022-09-03T12:56:40;5.67;;;2.70;;
2756;SDS011;1386;50.862;6.494;2022-09-03T12:59:09;5.20;;;2.27;;
2756;SDS011;1386;50.862;6.494;2022-09-03T13:01:43;3.70;;;2.57;;
2756;SDS011;1386;50.862;6.494;2022-09-03T13:04:15;2.30;;;2.00;;
2756;SDS011;1386;50.862;6.494;2022-09-03T13:06:46;5.63;;;2.40;;
2756;SDS011;1386;50.862;6.494;2022-09-03T13:09:18;3.50;;;2.37;;
2756;SDS011;1386;50.862;6.494;2022-09-03T13:11:47;2.40;;;2.00;;
2756;SDS011;1386;50.862;6.494;2022-09-03T13:14:16;3.73;;;2.67;;
2756;SDS011;1386;50.862;6.494;2022-09-03T13:17:07;2.67;;;2.07;;
2756;SDS011;1386;50.862;6.494;2022-09-03T13:19:44;2.97;;;2.00;;
2756;SDS011;1386;50.862;6.494;2022-09-03T13:22:21;2.80;;;2.60;;
2756;SDS011;1386;50.862;6.494;2022-09-03T13:25:01;5.23;;;2.40;;
2756;SDS011;1386;50.862;6.494;2022-09-03T13:27:38;5.30;;;2.53;;
2756;SDS011;1386;50.862;6.494;2022-09-03T13:30:11;4.70;;;2.43;;
2756;SDS011;1386;50.862;6.494;2022-09-03T13:32:45;3.87;;;2.33;;
2756;SDS011;1386;50.862;6.494;2022-09-03T13:35:24;2.53;;;2.13;;
2756;SDS011;1386;50.862;6.494;2022-09-03T13:37:57;3.43;;;2.23;;
2756;SDS011;1386;50.862;6.494;2022-09-03T13:40:34;2.63;;;2.43;;
2756;SDS011;1386;50.862;6.494;2022-09-03T13:43:08;3.23;;;2.13;;
2756;SDS011;1386;50.862;6.494;2022-09-03T13:45:47;2.70;;;2.50;;
2756;SDS011;1386;50.862;6.494;2022-09-03T13:48:23;3.40;;;2.50;;
2756;SDS011;1386;50.862;6.494;2022-09-03T13:51:12;5.27;;;2.60;;
2756;SDS011;1386;50.862;6.494;2022-09-03T13:53:48;5.00;;;2.50;;
2756;SDS011;1386;50.862;6.494;2022-09-03T13:56:25;2.23;;;2.00;;
2756;SDS011;1386;50.862;6.494;2022-09-03T13:59:02;7.90;;;2.60;;
2756;SDS011;1386;50.862;6.494;2022-09-03T14:01:40;2.97;;;2.47;;
2756;SDS011;1386;50.862;6.494;2022-09-03T14:04:26;2.60;;;2.00;;
2756;SDS011;1386;50.862;6.494;2022-09-03T14:07:00;3.10;;;2.43;;
2756;SDS011;1386;50.862;6.494;2022-09-03T14:09:32;2.83;;;2.50;;
2756;SDS011;1386;50.862;6.494;2022-09-03T14:12:20;3.70;;;2.30;;
2756;SDS011;1386;50.862;6.494;2022-09-03T14:14:57;2.47;;;2.27;;
2756;SDS011;1386;50.862;6.494;2022-09-03T14:17:35;2.87;;;2.67;;
2756;SDS011;1386;50.862;6.494;2022-09-03T14:20:07;2.67;;;2.43;;
2756;SDS011;1386;50.862;6.494;2022-09-03T14:22:42;2.60;;;2.40;;
2756;SDS011;1386;50.862;6.494;2022-09-03T14:25:16;2.80;;;2.60;;
2756;SDS011;1386;50.862;6.494;2022-09-03T14:27:45;7.03;;;2.80;;
2756;SDS011;1386;50.862;6.494;2022-09-03T14:30:19;3.30;;;2.80;;
2756;SDS011;1386;50.862;6.494;2022-09-03T14:32:56;3.50;;;2.30;;
2756;SDS011;1386;50.862;6.494;2022-09-03T14:35:37;2.60;;;2.40;;
2756;SDS011;1386;50.862;6.494;2022-09-03T14:38:20;2.70;;;2.50;;
2756;SDS011;1386;50.862;6.494;2022-09-03T14:41:16;2.87;;;2.23;;
2756;SDS011;1386;50.862;6.494;2022-09-03T14:44:05;2.40;;;2.20;;
2756;SDS011;1386;50.862;6.494;2022-09-03T14:46:54;2.93;;;2.30;;
2756;SDS011;1386;50.862;6.494;2022-09-03T14:49:36;4.57;;;2.70;;
2756;SDS011;1386;50.862;6.494;2022-09-03T14:52:31;2.93;;;2.50;;
2756;SDS011;1386;50.862;6.494;2022-09-03T14:55:18;2.43;;;2.23;;
2756;SDS011;1386;50.862;6.494;2022-09-03T14:58:17;3.03;;;2.40;;
2756;SDS011;1386;50.862;6.494;2022-09-03T15:00:55;3.03;;;2.77;;
2756;SDS011;1386;50.862;6.494;2022-09-03T15:57:44;3.17;;;2.60;;
2756;SDS011;1386;50.862;6.494;2022-09-03T16:00:17;3.87;;;2.63;;
2756;SDS011;1386;50.862;6.494;2022-09-03T16:02:46;2.90;;;2.60;;
2756;SDS011;1386;50.862;6.494;2022-09-03T16:05:20;2.80;;;2.20;;
2756;SDS011;1386;50.862;6.494;2022-09-03T16:08:03;3.50;;;2.23;;
2756;SDS011;1386;50.862;6.494;2022-09-03T16:10:38;5.33;;;2.07;;
2756;SDS011;1386;50.862;6.494;2022-09-03T16:13:24;2.80;;;2.23;;
2756;SDS011;1386;50.862;6.494;2022-09-03T16:16:04;2.73;;;2.00;;
2756;SDS011;1386;50.862;6.494;2022-09-03T16:18:36;2.93;;;2.00;;
2756;SDS011;1386;50.862;6.494;2022-09-03T16:21:07;2.20;;;1.93;;
2756;SDS011;1386;50.862;6.494;2022-09-03T16:23:39;3.13;;;2.40;;
2756;SDS011;1386;50.862;6.494;2022-09-03T16:26:13;2.50;;;2.20;;
2756;SDS011;1386;50.862;6.494;2022-09-03T16:28:49;2.43;;;2.23;;
2756;SDS011;1386;50.862;6.494;2022-09-03T16:31:25;3.33;;;2.23;;
2756;SDS011;1386;50.862;6.494;2022-09-03T16:34:03;3.07;;;2.30;;
2756;SDS011;1386;50.862;6.494;2022-09-03T16:36:36;2.43;;;2.03;;
2756;SDS011;1386;50.862;6.494;2022-09-03T16:39:12;4.37;;;2.20;;
2756;SDS011;1386;50.862;6.494;2022-09-03T16:41:57;2.60;;;2.10;;
2756;SDS011;1386;50.862;6.494;2022-09-03T16:44:36;3.03;;;2.30;;
2756;SDS011;1386;50.862;6.494;2022-09-03T16:47:16;2.77;;;2.00;;
2756;SDS011;1386;50.862;6.494;2022-09-03T16:49:54;2.63;;;2.43;;
2756;SDS011;1386;50.862;6.494;2022-09-03T16:52:32;2.53;;;2.00;;
2756;SDS011;1386;50.862;6.494;2022-09-03T16:55:15;3.50;;;1.80;;
2756;SDS011;1386;50.862;6.494;2022-09-03T16:57:53;2.60;;;1.90;;
2756;SDS011;1386;50.862;6.494;2022-09-03T17:01:03;2.47;;;2.27;;
2756;SDS011;1386;50.862;6.494;2022-09-03T17:04:01;2.40;;;2.17;;
2756;SDS011;1386;50.862;6.494;2022-09-03T17:06:51;3.20;;;2.20;;
2756;SDS011;1386;50.862;6.494;2022-09-03T17:09:35;3.43;;;2.37;;
2756;SDS011;1386;50.862;6.494;2022-09-03T17:12:18;2.40;;;2.10;;
2756;SDS011;1386;50.862;6.494;2022-09-03T17:15:12;3.57;;;2.60;;
2756;SDS011;1386;50.862;6.494;2022-09-03T17:21:00;4.30;;;2.47;;
2756;SDS011;1386;50.862;6.494;2022-09-03T17:23:50;2.77;;;2.47;;
2756;SDS011;1386;50.862;6.494;2022-09-03T17:26:31;3.40;;;2.80;;
2756;SDS011;1386;50.862;6.494;2022-09-03T17:29:27;3.33;;;2.70;;
2756;SDS011;1386;50.862;6.494;2022-09-03T17:32:19;2.50;;;2.00;;
2756;SDS011;1386;50.862;6.494;2022-09-03T17:35:26;2.10;;;1.90;;
2756;SDS011;1386;50.862;6.494;2022-09-03T17:41:44;3.07;;;2.20;;
2756;SDS011;1386;50.862;6.494;2022-09-03T17:44:23;1.97;;;1.87;;
2756;SDS011;1386;50.862;6.494;2022-09-03T17:47:26;3.50;;;2.17;;
2756;SDS011;1386;50.862;6.494;2022-09-03T19:54:10;3.03;;;2.53;;
2756;SDS011;1386;50.862;6.494;2022-09-03T19:56:55;3.33;;;2.90;;
2756;SDS011;1386;50.862;6.494;2022-09-03T19:59:57;2.87;;;2.40;;
2756;SDS011;1386;50.862;6.494;2022-09-03T20:03:09;4.07;;;2.90;;
2756;SDS011;1386;50.862;6.494;2022-09-03T20:05:57;2.60;;;2.40;;
2756;SDS011;1386;50.862;6.494;2022-09-03T20:08:44;3.13;;;2.60;;
2756;SDS011;1386;50.862;6.494;2022-09-03T20:15:05;2.93;;;2.70;;
2756;SDS011;1386;50.862;6.494;2022-09-03T20:18:14;3.17;;;2.67;;
2756;SDS011;1386;50.862;6.494;2022-09-03T20:22:00;3.60;;;2.60;;
2756;SDS011;1386;50.862;6.494;2022-09-03T21:03:01;2.90;;;2.60;;
2756;SDS011;1386;50.862;6.494;2022-09-03T21:05:41;2.97;;;2.67;;
2756;SDS011;1386;50.862;6.494;2022-09-03T21:08:16;2.90;;;2.47;;
2756;SDS011;1386;50.862;6.494;2022-09-03T21:10:51;3.70;;;2.70;;
2756;SDS011;1386;50.862;6.494;2022-09-03T21:13:25;3.50;;;2.40;;
2756;SDS011;1386;50.862;6.494;2022-09-03T21:16:01;5.00;;;2.73;;
2756;SDS011;1386;50.862;6.494;2022-09-03T21:18:41;3.83;;;2.80;;
2756;SDS011;1386;50.862;6.494;2022-09-03T21:21:18;4.33;;;3.03;;
2756;SDS011;1386;50.862;6.494;2022-09-03T21:24:00;4.17;;;2.80;;
2756;SDS011;1386;50.862;6.494;2022-09-03T21:26:31;3.80;;;3.10;;
2756;SDS011;1386;50.862;6.494;2022-09-03T21:29:06;3.20;;;2.83;;
2756;SDS011;1386;50.862;6.494;2022-09-03T21:31:43;4.57;;;3.00;;
2756;SDS011;1386;50.862;6.494;2022-09-03T21:34:19;3.93;;;3.30;;
2756;SDS011;1386;50.862;6.494;2022-09-03T21:36:52;4.43;;;3.07;;
2756;SDS011;1386;50.862;6.494;2022-09-03T21:39:23;3.80;;;3.07;;
2756;SDS011;1386;50.862;6.494;2022-09-03T21:41:54;3.53;;;3.20;;
2756;SDS011;1386;50.862;6.494;2022-09-03T21:44:32;3.67;;;3.13;;
2756;SDS011;1386;50.862;6.494;2022-09-03T21:47:16;3.23;;;2.93;;
2756;SDS011;1386;50.862;6.494;2022-09-03T21:49:51;2.90;;;2.60;;
2756;SDS011;1386;50.862;6.494;2022-09-03T21:52:28;3.30;;;3.00;;